createdAt,value
2023-05-13T00:00:33.598Z,3.58
2023-05-13T00:03:02.799Z,3.78
2023-05-13T00:05:30.854Z,3.53
2023-05-13T00:08:02.096Z,3.85
2023-05-13T00:10:30.025Z,3.77
2023-05-13T00:12:57.805Z,3.70
2023-05-13T00:15:25.498Z,3.60
2023-05-13T00:17:53.205Z,3.20
2023-05-13T00:20:22.678Z,3.45
2023-05-13T00:22:50.553Z,3.43
2023-05-13T00:25:18.278Z,3.70
2023-05-13T00:27:45.958Z,3.17
2023-05-13T00:30:13.761Z,3.67
2023-05-13T00:32:41.473Z,3.63
2023-05-13T00:35:09.980Z,3.23
2023-05-13T00:37:39.047Z,3.25
2023-05-13T00:40:09.030Z,3.90
2023-05-13T00:42:36.677Z,3.53
2023-05-13T00:45:04.772Z,4.33
2023-05-13T00:47:32.465Z,3.67
2023-05-13T00:50:00.187Z,4.00
2023-05-13T00:52:28.561Z,3.95
2023-05-13T00:54:57.527Z,3.38
2023-05-13T00:57:25.221Z,3.77
2023-05-13T00:59:53.472Z,4.10
2023-05-13T01:02:28.524Z,4.07
2023-05-13T01:05:04.133Z,3.63
2023-05-13T01:07:41.728Z,4.30
2023-05-13T01:10:16.619Z,3.70
2023-05-13T01:12:47.244Z,4.10
2023-05-13T01:15:18.293Z,4.10
2023-05-13T01:17:54.762Z,4.30
2023-05-13T01:20:24.306Z,4.60
2023-05-13T01:22:53.473Z,4.70
2023-05-13T01:25:21.316Z,4.10
2023-05-13T01:27:49.170Z,4.80
2023-05-13T01:30:17.629Z,4.70
2023-05-13T01:32:46.547Z,4.65
2023-05-13T01:35:16.362Z,4.63
2023-05-13T01:37:44.802Z,4.97
2023-05-13T01:40:30.981Z,4.97
2023-05-13T01:42:59.374Z,4.60
2023-05-13T01:45:29.160Z,5.07
2023-05-13T01:47:56.998Z,5.10
2023-05-13T01:50:24.944Z,5.30
2023-05-13T01:52:52.588Z,5.47
2023-05-13T01:55:21.835Z,5.30
2023-05-13T01:57:49.583Z,5.83
2023-05-13T02:00:18.031Z,4.90
2023-05-13T02:02:47.018Z,6.10
2023-05-13T02:05:14.795Z,5.53
2023-05-13T02:07:42.445Z,5.83
2023-05-13T02:10:11.111Z,5.77
2023-05-13T02:15:08.636Z,5.70
2023-05-13T02:20:04.479Z,6.78
2023-05-13T02:22:32.142Z,6.45
2023-05-13T02:24:59.842Z,6.07
2023-05-13T02:27:27.620Z,6.80
2023-05-13T02:29:56.606Z,6.13
2023-05-13T02:32:24.292Z,6.03
2023-05-13T02:34:51.981Z,6.50
2023-05-13T02:37:19.748Z,7.20
2023-05-13T02:39:47.400Z,7.87
2023-05-13T02:42:15.091Z,7.40
2023-05-13T02:44:42.803Z,6.50
2023-05-13T02:47:11.872Z,6.70
2023-05-13T02:49:39.523Z,6.87
2023-05-13T02:52:07.678Z,7.60
2023-05-13T02:54:35.396Z,6.85
2023-05-13T02:57:03.105Z,7.43
2023-05-13T02:59:31.041Z,7.47
2023-05-13T03:01:58.716Z,7.40
2023-05-13T03:04:27.782Z,8.63
2023-05-13T03:06:55.692Z,7.57
2023-05-13T03:09:23.501Z,7.18
2023-05-13T03:11:51.243Z,9.27
2023-05-13T03:14:18.954Z,7.13
2023-05-13T03:16:46.641Z,8.38
2023-05-13T03:19:14.631Z,7.97
2023-05-13T03:21:43.770Z,8.15
2023-05-13T03:24:11.440Z,8.60
2023-05-13T03:26:39.175Z,8.77
2023-05-13T03:29:07.012Z,8.52
2023-05-13T03:31:34.944Z,9.10
2023-05-13T03:34:02.744Z,8.93
2023-05-13T03:36:30.474Z,8.52
2023-05-13T03:38:59.631Z,10.03
2023-05-13T03:41:28.213Z,9.00
2023-05-13T03:43:55.873Z,10.05
2023-05-13T03:46:23.722Z,9.80
2023-05-13T03:48:51.423Z,10.68
2023-05-13T03:51:19.084Z,9.83
2023-05-13T03:53:46.769Z,9.90
2023-05-13T03:56:16.555Z,10.30
2023-05-13T03:58:44.303Z,10.40
2023-05-13T04:01:12.027Z,11.63
2023-05-13T04:03:39.777Z,10.13
2023-05-13T04:06:07.799Z,9.57
2023-05-13T04:08:35.560Z,12.35
2023-05-13T04:11:03.328Z,12.07
2023-05-13T04:13:35.708Z,10.17
2023-05-13T04:16:03.895Z,11.07
2023-05-13T04:18:32.512Z,11.25
2023-05-13T04:23:27.815Z,11.83
2023-05-13T04:25:55.566Z,10.63
2023-05-13T04:28:23.203Z,11.17
2023-05-13T04:30:52.231Z,12.30
2023-05-13T04:33:19.917Z,11.37
2023-05-13T04:35:47.556Z,11.07
2023-05-13T04:38:15.646Z,13.10
2023-05-13T04:40:44.667Z,11.25
2023-05-13T04:43:12.797Z,10.57
2023-05-13T04:45:40.758Z,10.68
2023-05-13T04:48:09.856Z,12.73
2023-05-13T04:50:37.632Z,11.93
2023-05-13T04:53:05.777Z,13.93
2023-05-13T04:55:33.489Z,11.33
2023-05-13T04:58:01.109Z,11.50
2023-05-13T05:00:28.804Z,10.57
2023-05-13T05:02:56.722Z,12.67
2023-05-13T05:05:25.860Z,11.80
2023-05-13T05:07:53.514Z,11.10
2023-05-13T05:10:21.437Z,11.30
2023-05-13T05:12:49.475Z,11.32
2023-05-13T05:15:17.275Z,11.68
2023-05-13T05:17:45.673Z,12.20
2023-05-13T05:20:14.379Z,11.85
2023-05-13T05:22:43.515Z,12.02
2023-05-13T05:25:11.977Z,11.83
2023-05-13T05:27:40.093Z,10.63
2023-05-13T05:30:09.850Z,10.50
2023-05-13T05:32:37.943Z,10.53
2023-05-13T05:35:06.565Z,10.15
2023-05-13T05:37:34.407Z,8.73
2023-05-13T05:40:03.826Z,8.88
2023-05-13T05:42:31.576Z,8.50
2023-05-13T05:44:59.248Z,8.80
2023-05-13T05:47:27.001Z,8.20
2023-05-13T05:49:54.735Z,7.72
2023-05-13T05:52:22.456Z,8.00
2023-05-13T05:54:50.077Z,7.70
2023-05-13T05:57:19.562Z,6.80
2023-05-13T05:59:47.255Z,7.60
2023-05-13T06:02:15.127Z,6.77
2023-05-13T06:04:43.011Z,7.15
2023-05-13T06:07:10.801Z,7.00
2023-05-13T06:09:38.522Z,6.73
2023-05-13T06:12:06.787Z,6.60
2023-05-13T06:14:36.012Z,6.80
2023-05-13T06:17:03.809Z,6.50
2023-05-13T06:19:31.548Z,6.80
2023-05-13T06:22:00.122Z,6.67
2023-05-13T06:24:28.616Z,6.47
2023-05-13T06:26:56.531Z,6.43
2023-05-13T06:29:24.217Z,6.55
2023-05-13T06:31:53.260Z,6.47
2023-05-13T06:34:20.982Z,6.20
2023-05-13T06:36:48.780Z,6.50
2023-05-13T06:39:16.573Z,6.10
2023-05-13T06:41:44.226Z,6.22
2023-05-13T06:44:11.857Z,6.47
2023-05-13T06:46:39.618Z,5.90
2023-05-13T06:49:09.179Z,6.30
2023-05-13T06:51:36.974Z,6.17
2023-05-13T06:54:04.790Z,6.68
2023-05-13T06:56:32.731Z,6.03
2023-05-13T06:59:00.459Z,6.63
2023-05-13T07:01:28.336Z,6.03
2023-05-13T07:03:56.186Z,6.22
2023-05-13T07:06:25.311Z,6.32
2023-05-13T07:08:53.034Z,5.45
2023-05-13T07:11:21.198Z,5.88
2023-05-13T07:13:48.936Z,6.07
2023-05-13T07:16:16.598Z,5.30
2023-05-13T07:18:44.859Z,5.60
2023-05-13T07:21:12.576Z,5.20
2023-05-13T07:23:43.705Z,5.78
2023-05-13T07:26:12.150Z,5.53
2023-05-13T07:28:39.797Z,5.97
2023-05-13T07:31:07.719Z,5.07
2023-05-13T07:33:35.466Z,5.45
2023-05-13T07:36:03.156Z,5.22
2023-05-13T07:38:30.829Z,5.20
2023-05-13T07:40:59.827Z,5.18
2023-05-13T07:43:27.973Z,5.80
2023-05-13T07:45:55.645Z,5.57
2023-05-13T07:48:24.585Z,4.80
2023-05-13T07:50:52.488Z,5.07
2023-05-13T07:53:20.273Z,5.25
2023-05-13T07:55:48.053Z,5.10
2023-05-13T07:58:18.618Z,5.43
2023-05-13T08:00:46.371Z,4.72
2023-05-13T08:03:14.184Z,5.30
2023-05-13T08:05:41.932Z,4.82
2023-05-13T08:08:09.676Z,5.45
2023-05-13T08:10:37.449Z,5.28
2023-05-13T08:13:05.164Z,4.93
2023-05-13T08:15:34.346Z,5.60
2023-05-13T08:18:02.051Z,5.30
2023-05-13T08:20:30.607Z,5.20
2023-05-13T08:22:58.816Z,5.35
2023-05-13T08:25:26.500Z,5.20
2023-05-13T08:27:54.632Z,5.32
2023-05-13T08:30:22.657Z,5.22
2023-05-13T08:32:51.797Z,5.57
2023-05-13T08:35:19.694Z,5.15
2023-05-13T08:37:47.464Z,5.45
2023-05-13T08:40:15.420Z,5.45
2023-05-13T08:42:44.372Z,5.50
2023-05-13T08:45:14.148Z,6.03
2023-05-13T08:47:51.336Z,5.10
2023-05-13T08:50:21.689Z,5.60
2023-05-13T08:52:53.123Z,5.25
2023-05-13T08:55:21.826Z,5.28
2023-05-13T08:57:49.799Z,6.03
2023-05-13T09:00:19.984Z,6.18
2023-05-13T09:02:50.251Z,5.00
2023-05-13T09:05:20.268Z,5.05
2023-05-13T09:07:48.116Z,5.07
2023-05-13T09:10:16.595Z,5.75
2023-05-13T09:12:48.392Z,5.57
2023-05-13T09:15:17.460Z,5.40
2023-05-13T09:17:46.215Z,5.65
2023-05-13T09:20:15.561Z,5.63
2023-05-13T09:22:46.811Z,5.57
2023-05-13T09:25:14.929Z,6.10
2023-05-13T09:27:44.614Z,6.00
2023-05-13T09:30:12.881Z,5.43
2023-05-13T09:37:49.585Z,5.68
2023-05-13T09:40:18.735Z,5.75
2023-05-13T09:42:47.692Z,6.30
2023-05-13T09:45:17.376Z,6.15
2023-05-13T09:47:45.355Z,5.57
2023-05-13T09:50:13.422Z,5.63
2023-05-13T09:52:41.140Z,5.50
2023-05-13T09:55:11.291Z,5.95
2023-05-13T09:57:40.804Z,5.65
2023-05-13T10:00:17.964Z,5.20
2023-05-13T10:02:53.362Z,5.50
2023-05-13T10:07:48.953Z,5.82
2023-05-13T10:10:18.264Z,6.57
2023-05-13T10:12:46.143Z,5.45
2023-05-13T10:15:14.099Z,5.28
2023-05-13T10:17:44.747Z,5.07
2023-05-13T10:20:13.836Z,5.13
2023-05-13T10:22:41.819Z,5.75
2023-05-13T10:25:11.480Z,5.65
2023-05-13T10:27:41.075Z,5.10
2023-05-13T10:30:10.605Z,5.45
2023-05-13T10:32:40.200Z,6.18
2023-05-13T10:35:13.408Z,5.80
2023-05-13T10:37:56.402Z,5.53
2023-05-13T10:40:39.935Z,5.90
2023-05-13T10:43:18.099Z,6.00
2023-05-13T10:45:48.115Z,5.30
2023-05-13T10:48:17.876Z,5.32
2023-05-13T10:50:53.897Z,5.95
2023-05-13T10:53:24.792Z,5.38
2023-05-13T10:55:57.590Z,5.43
2023-05-13T10:58:32.713Z,6.15
2023-05-13T11:01:19.140Z,5.70
2023-05-13T11:03:54.583Z,5.50
2023-05-13T11:06:23.610Z,5.80
2023-05-13T11:08:54.423Z,5.07
2023-05-13T11:11:33.115Z,5.57
2023-05-13T11:14:09.619Z,4.82
2023-05-13T11:16:38.104Z,4.90
2023-05-13T11:19:11.540Z,5.38
2023-05-13T11:21:41.360Z,4.95
2023-05-13T11:24:09.480Z,4.50
2023-05-13T11:29:16.496Z,5.60
2023-05-13T11:31:46.501Z,5.53
2023-05-13T11:34:16.140Z,4.80
2023-05-13T11:36:47.194Z,4.32
2023-05-13T11:39:17.119Z,4.60
2023-05-13T11:41:47.352Z,4.75
2023-05-13T11:44:17.551Z,4.63
2023-05-13T11:46:53.376Z,4.45
2023-05-13T11:49:35.066Z,4.90
2023-05-13T11:52:03.718Z,4.95
2023-05-13T11:54:31.383Z,4.68
2023-05-13T11:56:59.110Z,4.60
2023-05-13T11:59:35.866Z,4.60
2023-05-13T12:02:09.559Z,4.07
2023-05-13T12:04:37.303Z,4.15
2023-05-13T12:07:05.214Z,4.90
2023-05-13T12:09:32.872Z,4.20
2023-05-13T12:12:00.712Z,4.18
2023-05-13T12:14:30.366Z,4.45
2023-05-13T12:16:58.768Z,4.15
2023-05-13T12:19:26.485Z,4.53
2023-05-13T12:21:54.139Z,4.68
2023-05-13T12:24:22.706Z,4.30
2023-05-13T12:26:50.603Z,4.68
2023-05-13T12:29:18.339Z,4.15
2023-05-13T12:32:06.729Z,5.10
2023-05-13T12:34:35.731Z,4.78
2023-05-13T12:37:13.731Z,4.47
2023-05-13T12:39:42.746Z,4.18
2023-05-13T12:42:17.557Z,3.90
2023-05-13T12:44:46.718Z,4.43
2023-05-13T12:47:19.881Z,4.05
2023-05-13T12:49:54.069Z,4.05
2023-05-13T12:52:22.389Z,3.60
2023-05-13T12:54:50.106Z,4.07
2023-05-13T12:57:18.327Z,4.15
2023-05-13T12:59:46.776Z,4.00
2023-05-13T13:02:15.955Z,3.95
2023-05-13T13:04:43.557Z,3.63
2023-05-13T13:07:14.488Z,3.70
2023-05-13T13:09:42.297Z,3.60
2023-05-13T13:14:37.398Z,3.60
2023-05-13T13:19:33.962Z,3.78
2023-05-13T13:22:01.635Z,3.63
2023-05-13T13:24:29.360Z,3.30
2023-05-13T13:26:58.386Z,4.30
2023-05-13T13:29:26.200Z,3.80
2023-05-13T13:31:53.836Z,3.03
2023-05-13T13:34:21.439Z,3.42
2023-05-13T13:36:50.705Z,3.30
2023-05-13T13:39:18.532Z,3.80
2023-05-13T13:41:47.229Z,3.50
2023-05-13T13:44:15.088Z,3.45
2023-05-13T13:46:42.997Z,3.40
2023-05-13T13:49:22.792Z,3.05
2023-05-13T13:51:52.972Z,3.28
2023-05-13T13:54:20.969Z,3.13
2023-05-13T13:56:49.303Z,3.67
2023-05-13T13:59:19.118Z,3.65
2023-05-13T14:01:47.057Z,3.53
2023-05-13T14:04:16.410Z,3.50
2023-05-13T14:06:46.953Z,3.85
2023-05-13T14:09:16.180Z,3.53
2023-05-13T14:11:43.974Z,3.35
2023-05-13T14:14:11.673Z,3.30
2023-05-13T14:19:07.095Z,3.67
2023-05-13T14:21:34.898Z,3.50
2023-05-13T14:24:02.522Z,3.47
2023-05-13T14:28:59.548Z,3.42
2023-05-13T14:33:54.882Z,4.03
2023-05-13T14:38:50.739Z,3.65
2023-05-13T14:43:49.165Z,6.45
2023-05-13T14:46:18.270Z,4.00
2023-05-13T14:48:46.001Z,4.32
2023-05-13T14:53:41.252Z,3.80
2023-05-13T14:58:36.849Z,3.67
2023-05-13T15:01:06.137Z,4.65
2023-05-13T15:03:33.894Z,3.85
2023-05-13T15:15:52.428Z,3.60
2023-05-13T15:18:21.553Z,3.72
2023-05-13T15:20:49.304Z,3.90
2023-05-13T15:23:17.082Z,4.38
2023-05-13T15:25:44.875Z,4.45
2023-05-13T15:28:12.567Z,5.70
